Time;durP1;ratioP1;P1;durP2;ratioP2;P2;SDS_P1;SDS_P2;PMS_P1;PMS_P2;Temp;Humidity;BMP_temperature;BMP_pressure;BME280_temperature;BME280_humidity;BME280_pressure;Samples;Min_cycle;Max_cycle;Signal;HPM_P1;HPM_P2
2022/07/31 00:00:43;;;;;;;7.78;2.00;;;20.00;99.90;;;;;;5076470;28;20048;-79
2022/07/31 00:03:09;;;;;;;3.60;1.90;;;20.10;99.90;;;;;;5076511;28;20048;-78
2022/07/31 00:05:34;;;;;;;7.20;2.10;;;20.00;99.90;;;;;;5076536;28;20052;-79
2022/07/31 00:08:01;;;;;;;7.57;1.90;;;20.00;99.90;;;;;;5076144;28;20283;-78
2022/07/31 00:10:27;;;;;;;5.45;1.88;;;20.10;99.90;;;;;;5076323;28;20041;-79
2022/07/31 00:12:53;;;;;;;5.18;1.77;;;19.90;99.90;;;;;;5076366;28;20056;-79
2022/07/31 00:15:19;;;;;;;4.50;1.90;;;19.90;99.90;;;;;;5076271;28;20041;-80
2022/07/31 00:17:45;;;;;;;6.03;2.00;;;20.00;99.90;;;;;;5076123;28;20045;-79
2022/07/31 00:20:13;;;;;;;8.73;2.20;;;19.80;99.90;;;;;;5076222;28;20105;-79
2022/07/31 00:22:42;;;;;;;4.60;2.13;;;19.80;99.90;;;;;;5076181;28;20098;-78
2022/07/31 00:25:09;;;;;;;5.63;2.22;;;19.80;99.90;;;;;;5076108;28;20079;-80
2022/07/31 00:27:35;;;;;;;5.57;2.33;;;19.80;99.90;;;;;;5076060;28;20377;-80
2022/07/31 00:30:00;;;;;;;5.87;2.37;;;19.70;99.90;;;;;;5075621;28;20052;-79
2022/07/31 00:32:26;;;;;;;4.00;2.20;;;19.70;99.90;;;;;;5075974;28;20052;-79
2022/07/31 00:34:52;;;;;;;4.13;2.10;;;19.70;99.90;;;;;;5075853;28;20087;-78
2022/07/31 00:37:17;;;;;;;4.50;2.10;;;19.70;99.90;;;;;;5076255;28;20044;-79
2022/07/31 00:39:43;;;;;;;4.87;2.07;;;19.70;99.90;;;;;;5076072;28;20044;-79
2022/07/31 00:42:18;;;;;;;6.37;2.20;;;19.60;99.90;;;;;;5075833;28;20037;-80
2022/07/31 00:44:44;;;;;;;5.63;2.28;;;19.70;99.90;;;;;;5074841;28;20405;-78
2022/07/31 00:47:10;;;;;;;5.95;2.10;;;19.60;99.90;;;;;;5075534;28;20047;-78
2022/07/31 00:49:36;;;;;;;3.97;2.47;;;19.60;99.90;;;;;;5075752;28;20057;-79
2022/07/31 00:52:01;;;;;;;5.83;2.17;;;19.60;99.90;;;;;;5074366;28;20040;-77
2022/07/31 00:54:27;;;;;;;3.83;2.20;;;19.50;99.90;;;;;;5075614;28;20124;-79
2022/07/31 00:56:52;;;;;;;5.37;2.47;;;19.40;99.90;;;;;;5074340;28;20131;-78
2022/07/31 00:59:18;;;;;;;4.77;2.30;;;19.50;99.90;;;;;;5075165;28;20052;-79
2022/07/31 01:01:44;;;;;;;4.87;2.07;;;19.40;99.90;;;;;;5075484;28;20056;-79
2022/07/31 01:04:11;;;;;;;3.70;1.93;;;19.40;99.90;;;;;;5075385;28;20048;-79
2022/07/31 01:06:37;;;;;;;4.55;2.40;;;19.40;99.90;;;;;;5075244;28;20056;-79
2022/07/31 01:09:03;;;;;;;4.60;2.33;;;19.30;99.90;;;;;;5074352;28;20032;-80
2022/07/31 01:11:47;;;;;;;3.57;2.30;;;19.20;99.90;;;;;;5075194;28;20127;-79
2022/07/31 01:14:14;;;;;;;5.55;2.35;;;19.10;99.90;;;;;;5075719;28;20119;-79
2022/07/31 01:16:45;;;;;;;4.68;2.20;;;19.20;99.90;;;;;;5075115;28;20055;-82
2022/07/31 01:19:20;;;;;;;3.67;2.10;;;19.10;99.90;;;;;;5074816;28;20481;-78
2022/07/31 01:22:06;;;;;;;3.10;2.20;;;19.00;99.90;;;;;;5075222;28;20044;-78
2022/07/31 01:25:07;;;;;;;4.25;2.50;;;19.00;99.90;;;;;;5074910;28;20044;-79
2022/07/31 01:27:44;;;;;;;4.32;2.35;;;19.00;99.90;;;;;;5051997;28;20049;-80
2022/07/31 01:30:10;;;;;;;4.07;2.20;;;18.90;99.90;;;;;;5074176;28;20055;-78
2022/07/31 01:32:40;;;;;;;5.53;2.30;;;18.90;99.90;;;;;;5074746;28;20179;-78
2022/07/31 01:35:20;;;;;;;3.35;2.58;;;18.90;99.90;;;;;;5074780;28;20093;-80
2022/07/31 01:38:06;;;;;;;3.92;2.60;;;18.80;99.90;;;;;;5075060;28;20052;-80
2022/07/31 01:40:36;;;;;;;3.78;2.35;;;18.70;99.90;;;;;;5073530;28;20040;-78
2022/07/31 01:43:06;;;;;;;6.47;2.30;;;18.60;99.90;;;;;;5074756;28;20392;-80
2022/07/31 01:45:33;;;;;;;5.57;2.33;;;18.60;99.90;;;;;;5074585;28;20059;-81
2022/07/31 01:48:00;;;;;;;3.63;2.30;;;18.60;99.90;;;;;;5074291;28;20052;-82
2022/07/31 01:50:27;;;;;;;5.07;2.33;;;18.50;99.90;;;;;;5074627;28;20071;-80
2022/07/31 01:52:55;;;;;;;5.20;2.30;;;18.60;99.90;;;;;;5073592;28;20110;-79
2022/07/31 01:55:22;;;;;;;6.43;2.67;;;18.40;99.90;;;;;;5074382;28;20052;-78
2022/07/31 01:57:49;;;;;;;5.45;2.70;;;18.40;99.90;;;;;;5074222;28;20533;-81
2022/07/31 02:00:17;;;;;;;;;;;18.40;99.90;;;;;;5074490;28;20523;-80
2022/07/31 02:02:44;;;;;;;4.18;2.67;;;18.30;99.90;;;;;;5074316;28;19920;-80
2022/07/31 02:05:11;;;;;;;5.20;2.80;;;18.30;99.90;;;;;;5074013;28;20075;-79
2022/07/31 02:07:39;;;;;;;4.53;2.40;;;18.30;99.90;;;;;;5074163;28;20040;-80
2022/07/31 02:10:08;;;;;;;5.28;2.72;;;18.20;99.90;;;;;;5073968;28;20058;-82
2022/07/31 02:12:35;;;;;;;4.80;2.58;;;18.30;99.90;;;;;;5074066;28;20094;-79
2022/07/31 02:15:05;;;;;;;9.35;2.70;;;18.20;99.90;;;;;;5073975;28;20044;-79
2022/07/31 02:17:32;;;;;;;7.00;2.63;;;18.20;99.90;;;;;;5074011;28;20051;-79
2022/07/31 02:20:00;;;;;;;3.83;2.60;;;18.30;99.90;;;;;;5073929;28;20049;-81
2022/07/31 02:22:28;;;;;;;5.70;2.80;;;18.20;99.90;;;;;;5072729;28;20110;-79
2022/07/31 02:24:53;;;;;;;5.13;2.70;;;18.20;99.90;;;;;;5073828;28;20123;-81
2022/07/31 02:27:20;;;;;;;4.27;2.80;;;18.20;99.90;;;;;;5072921;28;20136;-79
2022/07/31 02:29:47;;;;;;;;;;;18.30;99.90;;;;;;5074191;28;20492;-79
2022/07/31 02:32:13;;;;;;;3.95;2.53;;;18.30;99.90;;;;;;5074088;28;20269;-79
2022/07/31 02:34:40;;;;;;;3.45;2.20;;;18.20;99.90;;;;;;5074013;28;20435;-79
2022/07/31 02:37:06;;;;;;;3.92;2.65;;;18.20;99.90;;;;;;5073908;28;20044;-80
2022/07/31 02:39:34;;;;;;;5.80;2.78;;;18.30;99.90;;;;;;5073709;28;20109;-79
2022/07/31 02:42:00;;;;;;;5.63;2.75;;;18.30;99.90;;;;;;5072758;28;20048;-79
2022/07/31 02:44:29;;;;;;;3.65;2.33;;;18.30;99.90;;;;;;5073692;28;20044;-78
2022/07/31 02:46:56;;;;;;;4.57;2.65;;;18.30;99.90;;;;;;5073565;28;20045;-79
2022/07/31 02:49:23;;;;;;;5.40;2.78;;;18.30;99.90;;;;;;5073476;28;20381;-79
2022/07/31 02:51:48;;;;;;;5.03;2.72;;;18.40;99.90;;;;;;5073531;28;20066;-81
2022/07/31 02:54:14;;;;;;;5.40;2.70;;;18.30;99.90;;;;;;5072591;28;20480;-79
2022/07/31 02:56:41;;;;;;;4.40;2.77;;;18.40;99.90;;;;;;5073586;28;20056;-82
2022/07/31 02:59:07;;;;;;;5.30;2.83;;;18.40;99.90;;;;;;5073207;28;20044;-81
2022/07/31 03:01:34;;;;;;;4.13;2.70;;;18.40;99.90;;;;;;5073547;28;20048;-80
2022/07/31 03:04:00;;;;;;;6.80;2.58;;;18.40;99.90;;;;;;5073413;28;20119;-78
2022/07/31 03:06:26;;;;;;;5.30;2.90;;;18.40;99.90;;;;;;5072670;28;20083;-81
2022/07/31 03:08:52;;;;;;;4.70;2.70;;;18.40;99.90;;;;;;5073448;28;20044;-81
2022/07/31 03:11:17;;;;;;;4.37;2.60;;;18.40;99.90;;;;;;5073833;28;20439;-79
2022/07/31 03:13:45;;;;;;;4.53;2.70;;;18.50;99.90;;;;;;5073354;28;20076;-79
2022/07/31 03:16:13;;;;;;;4.57;2.45;;;18.50;99.90;;;;;;5073490;28;20400;-79
2022/07/31 03:18:39;;;;;;;4.18;2.92;;;18.40;99.90;;;;;;5073512;28;20109;-80
2022/07/31 03:21:08;;;;;;;5.40;3.05;;;18.50;99.90;;;;;;5073370;28;20408;-79
2022/07/31 03:23:36;;;;;;;4.40;2.70;;;18.40;99.90;;;;;;5073283;28;20053;-79
2022/07/31 03:26:03;;;;;;;5.78;2.55;;;18.40;99.90;;;;;;5072345;28;20433;-80
2022/07/31 03:28:29;;;;;;;3.80;2.67;;;18.50;99.90;;;;;;5073643;28;20048;-79
2022/07/31 03:30:55;;;;;;;3.57;2.70;;;18.40;99.90;;;;;;5073600;28;20040;-80
2022/07/31 03:33:21;;;;;;;3.28;2.45;;;18.40;99.90;;;;;;5073166;28;20049;-81
2022/07/31 03:35:48;;;;;;;6.20;3.40;;;18.40;99.90;;;;;;5073216;28;20044;-80
2022/07/31 03:38:14;;;;;;;6.60;2.97;;;18.40;99.90;;;;;;5073161;28;20063;-80
2022/07/31 03:40:39;;;;;;;5.43;3.17;;;18.40;99.90;;;;;;5072277;28;20472;-79
2022/07/31 03:43:06;;;;;;;5.23;3.23;;;18.40;99.90;;;;;;5073167;28;20419;-78
2022/07/31 03:45:35;;;;;;;7.32;3.40;;;18.20;99.90;;;;;;5073428;28;20041;-80
2022/07/31 03:48:01;;;;;;;5.40;3.28;;;18.30;99.90;;;;;;5072994;28;20049;-79
2022/07/31 03:50:27;;;;;;;7.15;3.10;;;18.30;99.90;;;;;;5072975;28;20049;-80
2022/07/31 03:52:53;;;;;;;4.60;3.10;;;18.30;99.90;;;;;;5075006;28;20051;-78
2022/07/31 03:55:19;;;;;;;4.67;2.93;;;18.30;99.90;;;;;;5076816;28;20701;-79
2022/07/31 03:57:45;;;;;;;4.33;2.97;;;18.30;99.90;;;;;;5076666;28;20044;-79
2022/07/31 04:00:12;;;;;;;6.78;3.58;;;18.30;99.90;;;;;;5076627;28;20095;-80
2022/07/31 04:02:37;;;;;;;6.15;3.00;;;18.20;99.90;;;;;;5076496;28;20048;-79
2022/07/31 04:05:03;;;;;;;8.70;3.67;;;18.20;99.90;;;;;;5076497;28;20045;-80
2022/07/31 04:07:29;;;;;;;6.18;3.22;;;18.20;99.90;;;;;;5076512;28;20394;-81
2022/07/31 04:09:55;;;;;;;3.47;2.83;;;18.40;99.90;;;;;;5076381;28;20106;-79
2022/07/31 04:12:20;;;;;;;5.40;3.33;;;18.20;99.90;;;;;;5076109;28;20048;-81
2022/07/31 04:14:46;;;;;;;4.47;3.43;;;18.20;99.90;;;;;;5075491;28;20127;-80
2022/07/31 04:17:11;;;;;;;3.70;2.77;;;18.20;99.90;;;;;;5076342;28;20051;-78
2022/07/31 04:19:38;;;;;;;4.93;3.63;;;18.20;99.90;;;;;;5075303;28;20044;-80
2022/07/31 04:22:04;;;;;;;5.15;3.13;;;18.20;99.90;;;;;;5076130;28;20547;-78
2022/07/31 04:24:30;;;;;;;5.20;3.08;;;18.20;99.90;;;;;;5076155;28;20040;-78
2022/07/31 04:26:57;;;;;;;5.43;3.50;;;18.50;99.90;;;;;;5076021;28;20506;-79
2022/07/31 04:29:23;;;;;;;5.75;3.17;;;18.30;99.90;;;;;;5076064;28;20055;-78
2022/07/31 04:31:49;;;;;;;4.65;3.20;;;18.30;99.90;;;;;;5075992;28;20036;-79
2022/07/31 04:34:15;;;;;;;5.63;3.35;;;18.30;99.90;;;;;;5075909;28;20055;-78
2022/07/31 04:36:40;;;;;;;5.30;3.90;;;18.30;99.90;;;;;;5074946;28;20044;-81
2022/07/31 04:39:06;;;;;;;6.13;3.40;;;18.40;99.90;;;;;;5075922;28;20488;-81
2022/07/31 04:41:32;;;;;;;6.20;3.53;;;18.30;99.90;;;;;;5076152;28;20087;-79
2022/07/31 04:43:58;;;;;;;5.13;3.40;;;18.50;99.90;;;;;;5075874;28;20041;-78
2022/07/31 04:46:25;;;;;;;5.30;3.57;;;18.40;99.90;;;;;;5075769;28;20051;-78
2022/07/31 04:48:51;;;;;;;5.53;3.40;;;18.40;99.90;;;;;;5075728;28;20287;-79
2022/07/31 04:51:18;;;;;;;5.13;3.10;;;18.40;99.90;;;;;;5075584;28;20041;-82
2022/07/31 04:53:44;;;;;;;;;;;18.50;99.90;;;;;;5074870;28;20397;-78
2022/07/31 04:58:53;;;;;;;8.18;3.90;;;18.50;99.90;;;;;;5075521;28;20052;-80
2022/07/31 05:01:19;;;;;;;5.53;3.03;;;18.50;99.90;;;;;;5075472;28;20036;-80
2022/07/31 05:03:44;;;;;;;4.97;3.50;;;18.30;99.90;;;;;;5073307;28;20484;-81
2022/07/31 05:06:11;;;;;;;6.50;3.60;;;18.50;99.90;;;;;;5074139;28;20048;-79
2022/07/31 05:08:37;;;;;;;4.20;3.30;;;18.50;99.90;;;;;;5075318;28;20044;-79
2022/07/31 05:11:21;;;;;;;5.72;3.13;;;18.50;99.90;;;;;;5074041;28;20105;-79
2022/07/31 05:13:48;;;;;;;6.03;3.40;;;18.60;99.90;;;;;;5074259;28;20044;-78
2022/07/31 05:16:13;;;;;;;;;;;18.50;99.90;;;;;;5075620;28;20049;-79
2022/07/31 05:18:39;;;;;;;5.85;3.40;;;18.50;99.90;;;;;;5074944;28;20085;-79
2022/07/31 05:21:05;;;;;;;4.87;3.43;;;18.50;99.90;;;;;;5075107;28;20123;-80
2022/07/31 05:23:30;;;;;;;5.13;3.50;;;18.50;99.90;;;;;;5075432;28;20546;-80
2022/07/31 05:25:56;;;;;;;5.67;3.57;;;18.50;99.90;;;;;;5074001;28;20048;-79
2022/07/31 05:28:21;;;;;;;4.00;3.00;;;18.50;99.90;;;;;;5075151;28;20049;-81
2022/07/31 05:30:47;;;;;;;7.27;3.40;;;18.60;99.90;;;;;;5074814;28;20486;-79
2022/07/31 05:33:12;;;;;;;4.53;3.47;;;18.60;99.90;;;;;;5074732;28;20044;-82
2022/07/31 05:35:38;;;;;;;7.40;3.60;;;18.60;99.90;;;;;;5074810;28;20053;-81
2022/07/31 05:38:05;;;;;;;5.67;3.33;;;18.90;99.90;;;;;;5073961;28;20079;-79
2022/07/31 05:40:30;;;;;;;5.50;3.20;;;18.80;99.90;;;;;;5074691;28;20037;-80
2022/07/31 05:42:56;;;;;;;3.87;3.20;;;18.90;99.90;;;;;;5074388;28;20044;-80
2022/07/31 05:45:21;;;;;;;4.53;3.40;;;18.80;99.90;;;;;;5074647;28;20041;-84
2022/07/31 05:47:47;;;;;;;6.30;3.30;;;18.90;99.90;;;;;;5039916;28;20056;-81
2022/07/31 05:50:13;;;;;;;4.00;3.00;;;18.90;99.90;;;;;;5074421;28;20087;-81
2022/07/31 05:52:39;;;;;;;5.17;3.43;;;19.00;99.90;;;;;;5074508;28;20048;-86
2022/07/31 05:55:05;;;;;;;7.13;3.40;;;19.00;99.90;;;;;;5056885;28;20310;-88
2022/07/31 05:57:30;;;;;;;5.60;3.20;;;19.10;99.90;;;;;;5057014;28;20045;-81
2022/07/31 05:59:56;;;;;;;5.53;3.23;;;19.10;99.90;;;;;;5073364;28;20045;-83
2022/07/31 06:02:21;;;;;;;5.53;3.13;;;19.10;99.90;;;;;;5073311;28;20465;-86
2022/07/31 06:04:47;;;;;;;4.10;2.97;;;19.00;99.90;;;;;;5056777;28;20040;-79
2022/07/31 06:07:13;;;;;;;4.40;3.10;;;19.20;99.90;;;;;;5074201;28;20086;-79
2022/07/31 06:09:38;;;;;;;5.83;3.13;;;19.20;99.90;;;;;;5074600;28;20048;-82
2022/07/31 06:12:04;;;;;;;4.07;3.10;;;19.20;99.90;;;;;;5074057;28;20083;-80
2022/07/31 06:14:30;;;;;;;6.78;2.80;;;19.20;99.90;;;;;;5073973;28;20055;-81
2022/07/31 06:16:55;;;;;;;5.07;3.30;;;19.20;99.90;;;;;;5073608;28;20036;-79
2022/07/31 06:19:21;;;;;;;3.23;2.67;;;19.30;99.90;;;;;;5074046;28;20052;-80
2022/07/31 06:21:46;;;;;;;9.63;3.17;;;19.40;99.90;;;;;;5073251;28;20041;-79
2022/07/31 06:24:12;;;;;;;5.37;3.03;;;19.40;99.90;;;;;;5089868;28;20472;-80
2022/07/31 06:26:37;;;;;;;3.70;3.00;;;19.50;99.90;;;;;;5073939;28;20055;-80
2022/07/31 06:29:03;;;;;;;3.83;3.07;;;19.50;99.90;;;;;;5074188;28;20036;-78
2022/07/31 06:31:29;;;;;;;4.10;2.90;;;19.80;99.90;;;;;;5073754;28;20128;-80
2022/07/31 06:33:55;;;;;;;4.90;3.03;;;19.60;99.90;;;;;;5073760;28;20353;-78
2022/07/31 06:36:20;;;;;;;4.80;3.10;;;19.60;99.90;;;;;;5074229;28;20074;-82
2022/07/31 06:38:46;;;;;;;4.17;2.73;;;19.80;99.90;;;;;;5073830;28;20477;-78
2022/07/31 06:41:43;;;;;;;3.73;2.93;;;19.70;99.90;;;;;;5073756;28;20043;-79
2022/07/31 06:44:00;;;;;;;4.38;2.80;;;19.80;99.90;;;;;;5073229;28;20412;-77
2022/07/31 06:46:26;;;;;;;4.60;3.17;;;19.80;99.90;;;;;;5073625;28;20128;-79
2022/07/31 06:48:52;;;;;;;6.47;3.63;;;19.90;99.90;;;;;;5073735;28;20060;-81
2022/07/31 06:51:17;;;;;;;3.87;2.73;;;20.00;99.90;;;;;;5073517;28;20036;-83
2022/07/31 06:53:43;;;;;;;4.40;3.20;;;20.00;99.90;;;;;;5072498;28;20044;-82
2022/07/31 06:56:08;;;;;;;4.33;3.00;;;20.00;99.90;;;;;;5072614;28;20041;-79
2022/07/31 06:58:34;;;;;;;3.90;2.80;;;20.10;99.90;;;;;;5073674;28;20136;-80
2022/07/31 07:00:59;;;;;;;6.57;3.00;;;20.00;99.90;;;;;;5072380;28;20127;-82
2022/07/31 07:03:25;;;;;;;5.10;2.93;;;20.10;99.90;;;;;;5073532;28;20419;-80
2022/07/31 07:05:51;;;;;;;4.57;3.03;;;20.20;99.90;;;;;;5073937;28;20047;-79
2022/07/31 07:08:17;;;;;;;3.15;2.63;;;20.20;99.90;;;;;;5073757;28;20044;-80
2022/07/31 07:10:42;;;;;;;6.23;3.00;;;20.30;99.90;;;;;;5073400;28;20063;-81
2022/07/31 07:13:08;;;;;;;4.30;3.20;;;20.30;99.90;;;;;;5073462;28;20098;-84
2022/07/31 07:15:33;;;;;;;4.50;2.97;;;20.40;99.90;;;;;;5055769;28;20208;-85
2022/07/31 07:17:59;;;;;;;6.23;3.07;;;20.50;99.90;;;;;;5073397;28;20048;-83
2022/07/31 07:20:25;;;;;;;5.47;2.90;;;20.50;99.90;;;;;;5089304;28;20048;-86
2022/07/31 07:22:50;;;;;;;5.03;3.30;;;20.90;99.90;;;;;;5055844;28;20423;-79
2022/07/31 07:25:19;;;;;;;6.60;3.23;;;20.50;99.90;;;;;;5055833;28;20052;-79
2022/07/31 07:27:45;;;;;;;5.57;2.75;;;20.60;99.90;;;;;;5073809;28;20060;-79
2022/07/31 07:30:11;;;;;;;6.50;3.15;;;20.90;99.90;;;;;;5077117;28;20052;-82
2022/07/31 07:32:36;;;;;;;5.67;3.00;;;20.80;99.90;;;;;;5077199;28;20063;-79
2022/07/31 07:35:03;;;;;;;4.77;3.20;;;20.90;99.90;;;;;;5077134;28;20127;-82
2022/07/31 07:37:29;;;;;;;3.10;2.50;;;20.90;99.90;;;;;;5076964;28;20048;-79
2022/07/31 07:39:55;;;;;;;3.65;2.50;;;20.90;99.90;;;;;;5077014;28;20056;-80
2022/07/31 07:42:20;;;;;;;5.45;3.15;;;21.00;99.90;;;;;;5076682;28;20511;-79
2022/07/31 07:44:46;;;;;;;3.17;2.57;;;21.00;99.90;;;;;;5076705;28;20040;-79
2022/07/31 07:47:11;;;;;;;4.83;3.23;;;21.10;99.90;;;;;;5076680;28;20545;-79
2022/07/31 07:49:37;;;;;;;4.93;3.50;;;21.10;99.90;;;;;;5077108;28;20105;-79
2022/07/31 07:52:03;;;;;;;7.00;3.10;;;21.30;99.90;;;;;;5076740;28;20472;-79
2022/07/31 07:54:28;;;;;;;5.53;3.10;;;21.20;99.90;;;;;;5076956;28;20099;-80
2022/07/31 07:56:54;;;;;;;7.10;3.87;;;21.10;99.90;;;;;;5076699;28;20516;-81
2022/07/31 07:59:20;;;;;;;6.90;3.97;;;21.20;99.90;;;;;;5076696;28;20047;-82
2022/07/31 08:01:46;;;;;;;5.27;4.07;;;21.30;99.90;;;;;;5075342;28;20362;-79
2022/07/31 08:04:11;;;;;;;7.30;4.73;;;21.40;99.90;;;;;;5076581;28;20451;-79
2022/07/31 08:06:37;;;;;;;5.40;3.87;;;21.30;99.90;;;;;;5076842;28;20040;-78
2022/07/31 08:09:03;;;;;;;8.63;5.10;;;21.30;99.90;;;;;;5076487;28;20499;-80
2022/07/31 08:11:28;;;;;;;7.47;4.50;;;21.40;99.90;;;;;;5076312;28;20392;-80
2022/07/31 08:13:54;;;;;;;7.90;5.13;;;21.50;99.90;;;;;;5076396;28;20040;-81
2022/07/31 08:16:20;;;;;;;8.37;5.20;;;21.50;99.90;;;;;;5076306;28;20044;-79
2022/07/31 08:18:47;;;;;;;9.27;4.95;;;21.60;99.90;;;;;;5076680;28;20408;-79
2022/07/31 08:21:13;;;;;;;9.98;5.38;;;21.60;99.90;;;;;;5076300;28;20040;-78
2022/07/31 08:23:38;;;;;;;6.87;5.97;;;21.70;99.90;;;;;;5076333;28;20044;-79
2022/07/31 08:26:07;;;;;;;8.00;5.90;;;21.80;99.90;;;;;;5076112;28;20048;-80
2022/07/31 08:28:33;;;;;;;7.30;5.30;;;21.80;99.90;;;;;;5075846;28;20052;-80
2022/07/31 08:30:59;;;;;;;8.43;5.40;;;21.90;99.90;;;;;;5075813;28;20044;-79
2022/07/31 08:33:25;;;;;;;7.10;5.70;;;21.80;99.90;;;;;;5075094;28;20044;-81
2022/07/31 08:35:50;;;;;;;6.63;5.70;;;21.90;99.90;;;;;;5075961;28;20094;-79
2022/07/31 08:38:19;;;;;;;9.90;6.30;;;21.90;99.90;;;;;;5075991;28;20105;-79
2022/07/31 08:40:46;;;;;;;7.03;6.30;;;21.90;99.90;;;;;;5074903;28;20052;-80
2022/07/31 08:43:12;;;;;;;9.18;6.32;;;21.80;99.90;;;;;;5075729;28;20041;-80
2022/07/31 08:45:39;;;;;;;;;;;21.80;99.90;;;;;;5076129;28;20073;-82
2022/07/31 08:48:07;;;;;;;7.10;5.20;;;21.80;99.90;;;;;;5076002;28;20346;-79
2022/07/31 08:50:36;;;;;;;7.53;6.47;;;21.80;99.90;;;;;;5075309;28;20485;-79
2022/07/31 08:53:03;;;;;;;9.32;6.38;;;21.80;99.90;;;;;;5075650;28;20049;-79
2022/07/31 08:55:31;;;;;;;7.18;6.47;;;21.70;99.90;;;;;;5075617;28;20441;-79
2022/07/31 08:57:56;;;;;;;7.40;6.50;;;21.70;99.90;;;;;;5075532;28;20382;-80
2022/07/31 09:00:22;;;;;;;8.90;6.63;;;21.70;99.90;;;;;;5075607;28;20070;-81
2022/07/31 09:02:48;;;;;;;7.10;5.70;;;21.70;99.90;;;;;;5075253;28;20508;-81
2022/07/31 09:05:15;;;;;;;7.63;5.80;;;21.80;99.90;;;;;;5075824;28;20378;-79
2022/07/31 09:07:41;;;;;;;8.43;5.35;;;21.90;99.90;;;;;;5074375;28;20500;-80
2022/07/31 09:10:27;;;;;;;7.70;6.07;;;22.00;99.90;;;;;;5075279;28;20431;-79
2022/07/31 09:12:54;;;;;;;8.77;6.47;;;22.00;99.90;;;;;;5075270;28;20446;-79
2022/07/31 09:15:30;;;;;;;7.35;5.97;;;22.00;99.90;;;;;;5074486;28;20040;-79
2022/07/31 09:17:56;;;;;;;7.45;5.85;;;22.00;99.90;;;;;;5074119;28;20044;-78
2022/07/31 09:20:24;;;;;;;8.60;5.50;;;22.00;99.90;;;;;;5075224;28;20384;-81
2022/07/31 09:23:07;;;;;;;9.75;5.72;;;22.00;99.90;;;;;;5075134;28;20044;-80
2022/07/31 09:25:33;;;;;;;6.95;5.45;;;21.90;99.90;;;;;;5075026;28;20040;-81
2022/07/31 09:28:06;;;;;;;7.78;5.78;;;22.00;99.90;;;;;;5074954;28;20667;-81
2022/07/31 09:30:33;;;;;;;6.28;5.57;;;22.00;99.90;;;;;;5074583;28;20033;-81
2022/07/31 09:33:14;;;;;;;;;;;21.90;99.90;;;;;;5073979;28;20047;-82
2022/07/31 09:35:48;;;;;;;8.35;5.50;;;21.90;99.90;;;;;;5073465;28;20398;-80
2022/07/31 09:38:15;;;;;;;9.25;6.10;;;21.90;99.90;;;;;;5074741;28;20044;-82
2022/07/31 09:40:44;;;;;;;7.32;5.47;;;21.80;99.90;;;;;;5073170;28;20497;-83
2022/07/31 09:43:18;;;;;;;8.20;5.32;;;21.90;99.90;;;;;;5074637;28;20051;-84
2022/07/31 09:45:48;;;;;;;6.95;5.70;;;21.90;99.90;;;;;;5057029;28;20053;-81
2022/07/31 09:48:13;;;;;;;5.93;5.30;;;21.80;99.90;;;;;;5074315;28;20052;-82
2022/07/31 09:50:55;;;;;;;5.90;4.53;;;21.70;99.90;;;;;;5090793;28;20045;-79
2022/07/31 09:53:22;;;;;;;6.80;5.47;;;21.70;99.90;;;;;;5074481;28;20043;-78
2022/07/31 09:55:51;;;;;;;7.47;5.70;;;21.60;99.90;;;;;;5056636;28;20106;-81
2022/07/31 09:58:17;;;;;;;8.40;5.68;;;21.70;99.90;;;;;;5074411;28;20450;-81
2022/07/31 10:00:43;;;;;;;7.43;5.80;;;21.70;99.90;;;;;;5074253;28;20037;-81
2022/07/31 10:03:12;;;;;;;;;;;21.60;99.90;;;;;;5073520;28;20053;-82
2022/07/31 10:05:41;;;;;;;8.30;5.78;;;21.70;99.90;;;;;;5074227;28;19974;-82
2022/07/31 10:08:07;;;;;;;7.97;6.05;;;21.60;99.90;;;;;;5074297;28;20046;-77
2022/07/31 10:10:33;;;;;;;8.82;5.90;;;21.60;99.90;;;;;;5074135;28;20389;-82
2022/07/31 10:13:07;;;;;;;6.93;6.20;;;21.70;99.90;;;;;;5073177;28;20048;-84
2022/07/31 10:15:36;;;;;;;7.03;6.32;;;21.80;99.90;;;;;;5073858;28;20448;-86
2022/07/31 10:18:02;;;;;;;6.88;6.18;;;21.90;99.90;;;;;;5056568;28;20488;-86
2022/07/31 10:20:29;;;;;;;8.02;5.32;;;21.90;99.90;;;;;;5056475;28;20404;-86
2022/07/31 10:23:00;;;;;;;9.85;6.15;;;22.00;99.90;;;;;;5056309;28;20476;-88
2022/07/31 10:25:30;;;;;;;8.10;6.22;;;22.00;99.90;;;;;;5072966;28;20053;-87
2022/07/31 10:27:56;;;;;;;5.75;5.15;;;22.00;99.90;;;;;;5056391;28;20056;-88
2022/07/31 10:30:22;;;;;;;9.18;6.75;;;22.00;99.90;;;;;;5056222;28;20127;-85
2022/07/31 10:32:49;;;;;;;6.57;5.43;;;22.00;99.90;;;;;;5072919;28;20049;-83
2022/07/31 10:35:16;;;;;;;10.50;7.57;;;22.10;99.90;;;;;;5056181;28;20055;-84
2022/07/31 10:37:54;;;;;;;12.98;6.63;;;22.30;99.90;;;;;;5055838;28;20076;-86
2022/07/31 10:40:30;;;;;;;7.30;6.50;;;22.20;99.90;;;;;;5056102;28;20048;-84
2022/07/31 10:43:19;;;;;;;9.88;7.05;;;22.20;99.90;;;;;;5073794;28;20051;-86
2022/07/31 10:45:50;;;;;;;7.65;6.35;;;22.30;99.90;;;;;;5056469;28;20097;-86
2022/07/31 10:48:16;;;;;;;7.97;7.18;;;22.30;99.90;;;;;;5055920;28;20140;-83
2022/07/31 10:50:43;;;;;;;10.15;7.53;;;22.10;99.90;;;;;;5072572;28;20075;-82
2022/07/31 10:53:11;;;;;;;8.82;7.63;;;22.50;99.90;;;;;;5089361;28;20039;-85
2022/07/31 10:55:37;;;;;;;7.88;7.03;;;22.50;99.90;;;;;;5072864;28;20091;-81
2022/07/31 10:58:11;;;;;;;9.53;7.77;;;22.60;99.90;;;;;;5072471;28;20129;-82
2022/07/31 11:00:37;;;;;;;9.30;8.00;;;22.60;99.90;;;;;;5073683;28;20710;-83
2022/07/31 11:03:16;;;;;;;11.98;8.05;;;22.60;99.90;;;;;;5075869;28;20056;-84
2022/07/31 11:05:56;;;;;;;10.77;8.85;;;22.60;99.90;;;;;;5060032;28;20114;-82
2022/07/31 11:08:22;;;;;;;16.33;9.25;;;22.60;99.90;;;;;;5076934;28;20040;-79
2022/07/31 11:10:50;;;;;;;10.93;8.80;;;22.50;99.90;;;;;;5078086;28;20047;-83
2022/07/31 11:13:16;;;;;;;13.60;10.63;;;22.50;99.90;;;;;;5076225;28;20040;-81
2022/07/31 11:15:42;;;;;;;13.32;10.88;;;22.40;99.90;;;;;;5077528;28;20173;-83
2022/07/31 11:18:16;;;;;;;13.03;11.67;;;22.40;99.90;;;;;;5076518;28;20138;-82
2022/07/31 11:20:45;;;;;;;13.38;11.88;;;22.50;99.90;;;;;;5077412;28;20036;-83
2022/07/31 11:23:14;;;;;;;12.90;11.50;;;22.30;99.90;;;;;;5076546;28;20070;-83
2022/07/31 11:25:39;;;;;;;13.80;12.07;;;22.30;99.90;;;;;;5059617;28;20139;-84
2022/07/31 11:28:14;;;;;;;13.10;10.97;;;22.30;99.90;;;;;;5075919;28;20127;-82
2022/07/31 11:30:52;;;;;;;15.45;12.32;;;22.30;99.90;;;;;;5076071;28;20563;-84
2022/07/31 11:33:39;;;;;;;15.90;11.95;;;22.30;99.90;;;;;;5076439;28;20052;-84
2022/07/31 11:36:34;;;;;;;15.25;11.85;;;22.20;99.90;;;;;;5077425;28;20501;-86
2022/07/31 11:38:59;;;;;;;16.15;12.40;;;22.20;99.90;;;;;;5062975;28;20095;-84
2022/07/31 11:41:29;;;;;;;14.97;11.33;;;22.20;99.90;;;;;;5076170;28;20447;-85
2022/07/31 11:43:56;;;;;;;15.05;11.63;;;22.10;99.90;;;;;;5076787;28;20055;-83
2022/07/31 11:46:29;;;;;;;14.52;11.80;;;22.10;99.90;;;;;;5059103;28;20094;-83
2022/07/31 11:48:55;;;;;;;12.57;10.27;;;22.20;99.90;;;;;;5076690;28;20501;-85
2022/07/31 11:51:21;;;;;;;;;;;22.40;99.90;;;;;;5075707;28;20041;-83
2022/07/31 11:53:48;;;;;;;15.80;12.38;;;22.40;99.90;;;;;;5059062;28;19920;-83
2022/07/31 11:56:18;;;;;;;15.98;12.73;;;22.10;99.90;;;;;;5075823;28;20052;-84
2022/07/31 11:58:49;;;;;;;14.93;13.13;;;22.10;99.90;;;;;;5059053;28;20056;-89
2022/07/31 12:01:15;;;;;;;15.48;13.25;;;22.00;99.90;;;;;;5075669;28;20059;-83
2022/07/31 12:03:42;;;;;;;15.93;12.40;;;22.00;99.90;;;;;;5075446;28;20433;-84
2022/07/31 12:06:09;;;;;;;17.42;14.38;;;21.80;99.90;;;;;;5058763;28;20056;-85
2022/07/31 12:08:34;;;;;;;17.38;13.45;;;21.70;99.90;;;;;;5058674;28;20048;-84
2022/07/31 12:11:02;;;;;;;16.13;14.43;;;21.60;99.90;;;;;;5076330;28;20101;-89
2022/07/31 12:13:29;;;;;;;19.98;17.08;;;21.40;99.90;;;;;;5074312;28;20507;-82
2022/07/31 12:16:08;;;;;;;22.02;15.13;;;21.40;99.90;;;;;;5075313;28;20075;-84
2022/07/31 12:18:55;;;;;;;18.00;16.10;;;21.00;99.90;;;;;;5092047;28;20462;-85
2022/07/31 12:21:35;;;;;;;19.42;16.77;;;20.80;99.90;;;;;;5076132;28;20393;-85
2022/07/31 12:24:08;;;;;;;19.13;17.05;;;20.80;99.90;;;;;;5076241;28;20049;-82
2022/07/31 12:26:34;;;;;;;17.00;15.10;;;20.70;99.90;;;;;;5075915;28;20044;-80
2022/07/31 12:29:00;;;;;;;19.90;16.43;;;20.60;99.90;;;;;;5076093;28;20122;-82
2022/07/31 12:31:28;;;;;;;18.25;16.35;;;20.50;99.90;;;;;;5074680;28;20412;-84
2022/07/31 12:33:53;;;;;;;18.02;16.13;;;20.50;99.90;;;;;;5074981;28;20053;-81
2022/07/31 12:36:20;;;;;;;18.57;16.60;;;20.40;99.90;;;;;;5074901;28;20053;-82
2022/07/31 12:38:56;;;;;;;17.80;15.75;;;20.30;99.90;;;;;;5075029;28;20170;-81
2022/07/31 12:41:22;;;;;;;18.13;15.75;;;20.40;99.90;;;;;;5075208;28;20415;-81
2022/07/31 12:43:48;;;;;;;19.70;16.70;;;20.30;99.90;;;;;;5075847;28;20045;-81
2022/07/31 12:46:13;;;;;;;19.47;17.27;;;20.30;99.90;;;;;;5075148;28;20370;-80
2022/07/31 12:48:41;;;;;;;16.40;14.67;;;20.30;99.90;;;;;;5075859;28;20404;-80
2022/07/31 12:51:07;;;;;;;19.35;15.63;;;20.30;99.90;;;;;;5075744;28;20048;-83